sensor_id;sensor_type;location;lat;lon;timestamp;temperature;humidity
65766;SHT31;52915;53.718;19.946;2022-08-19T00:02:22;22.87;73.17
65766;SHT31;52915;53.718;19.946;2022-08-19T00:07:26;22.91;73.05
65766;SHT31;52915;53.718;19.946;2022-08-19T00:12:31;22.80;73.35
65766;SHT31;52915;53.718;19.946;2022-08-19T00:17:41;22.76;73.21
65766;SHT31;52915;53.718;19.946;2022-08-19T00:22:47;22.78;73.01
65766;SHT31;52915;53.718;19.946;2022-08-19T00:27:52;22.79;73.06
65766;SHT31;52915;53.718;19.946;2022-08-19T00:32:57;22.77;73.08
65766;SHT31;52915;53.718;19.946;2022-08-19T00:38:02;22.65;73.43
65766;SHT31;52915;53.718;19.946;2022-08-19T00:43:10;22.48;73.64
65766;SHT31;52915;53.718;19.946;2022-08-19T00:48:17;22.45;73.49
65766;SHT31;52915;53.718;19.946;2022-08-19T00:53:24;22.48;73.31
65766;SHT31;52915;53.718;19.946;2022-08-19T00:58:34;22.52;73.03
65766;SHT31;52915;53.718;19.946;2022-08-19T01:03:39;22.53;72.92
65766;SHT31;52915;53.718;19.946;2022-08-19T01:09:01;22.50;72.86
65766;SHT31;52915;53.718;19.946;2022-08-19T01:14:07;22.41;73.22
65766;SHT31;52915;53.718;19.946;2022-08-19T01:19:15;22.28;73.63
65766;SHT31;52915;53.718;19.946;2022-08-19T01:24:46;22.18;74.09
65766;SHT31;52915;53.718;19.946;2022-08-19T01:29:52;22.14;74.21
65766;SHT31;52915;53.718;19.946;2022-08-19T01:34:56;22.11;74.33
65766;SHT31;52915;53.718;19.946;2022-08-19T01:40:03;22.04;74.57
65766;SHT31;52915;53.718;19.946;2022-08-19T01:45:11;21.95;74.73
65766;SHT31;52915;53.718;19.946;2022-08-19T01:50:15;21.88;74.79
65766;SHT31;52915;53.718;19.946;2022-08-19T01:55:22;21.81;74.96
65766;SHT31;52915;53.718;19.946;2022-08-19T02:00:28;21.79;74.89
65766;SHT31;52915;53.718;19.946;2022-08-19T02:05:35;21.74;75.07
65766;SHT31;52915;53.718;19.946;2022-08-19T02:10:41;21.71;75.10
65766;SHT31;52915;53.718;19.946;2022-08-19T02:15:47;21.69;75.21
65766;SHT31;52915;53.718;19.946;2022-08-19T02:20:52;21.65;75.35
65766;SHT31;52915;53.718;19.946;2022-08-19T02:25:56;21.56;75.67
65766;SHT31;52915;53.718;19.946;2022-08-19T02:31:01;21.52;75.76
65766;SHT31;52915;53.718;19.946;2022-08-19T02:36:06;21.54;75.79
65766;SHT31;52915;53.718;19.946;2022-08-19T02:41:13;21.57;75.74
65766;SHT31;52915;53.718;19.946;2022-08-19T02:46:24;21.53;75.87
65766;SHT31;52915;53.718;19.946;2022-08-19T02:51:36;21.44;76.22
65766;SHT31;52915;53.718;19.946;2022-08-19T02:56:44;21.37;76.63
65766;SHT31;52915;53.718;19.946;2022-08-19T03:01:49;21.39;76.57
65766;SHT31;52915;53.718;19.946;2022-08-19T03:06:54;21.40;76.62
65766;SHT31;52915;53.718;19.946;2022-08-19T03:12:04;21.40;76.61
65766;SHT31;52915;53.718;19.946;2022-08-19T03:17:10;21.36;77.00
65766;SHT31;52915;53.718;19.946;2022-08-19T03:22:14;21.29;77.14
65766;SHT31;52915;53.718;19.946;2022-08-19T03:27:18;21.26;77.29
65766;SHT31;52915;53.718;19.946;2022-08-19T03:32:23;21.26;77.32
65766;SHT31;52915;53.718;19.946;2022-08-19T03:37:43;21.29;77.14
65766;SHT31;52915;53.718;19.946;2022-08-19T03:42:48;21.31;76.97
65766;SHT31;52915;53.718;19.946;2022-08-19T03:47:53;21.32;76.92
65766;SHT31;52915;53.718;19.946;2022-08-19T03:52:58;21.30;77.01
65766;SHT31;52915;53.718;19.946;2022-08-19T03:58:03;21.32;77.09
65766;SHT31;52915;53.718;19.946;2022-08-19T04:03:07;21.38;77.12
65766;SHT31;52915;53.718;19.946;2022-08-19T04:08:13;21.38;77.28
65766;SHT31;52915;53.718;19.946;2022-08-19T04:13:23;21.41;77.15
65766;SHT31;52915;53.718;19.946;2022-08-19T04:18:31;21.55;76.74
65766;SHT31;52915;53.718;19.946;2022-08-19T04:23:38;21.68;76.43
65766;SHT31;52915;53.718;19.946;2022-08-19T04:28:47;21.81;76.06
65766;SHT31;52915;53.718;19.946;2022-08-19T04:33:58;21.88;75.90
65766;SHT31;52915;53.718;19.946;2022-08-19T04:39:07;21.97;75.68
65766;SHT31;52915;53.718;19.946;2022-08-19T04:44:16;22.08;75.29
65766;SHT31;52915;53.718;19.946;2022-08-19T04:49:21;22.19;74.91
65766;SHT31;52915;53.718;19.946;2022-08-19T04:54:26;22.34;74.57
65766;SHT31;52915;53.718;19.946;2022-08-19T04:59:40;22.55;74.17
65766;SHT31;52915;53.718;19.946;2022-08-19T05:04:45;22.76;73.63
65766;SHT31;52915;53.718;19.946;2022-08-19T05:09:49;22.93;73.04
65766;SHT31;52915;53.718;19.946;2022-08-19T05:15:01;23.10;72.39
65766;SHT31;52915;53.718;19.946;2022-08-19T05:20:09;23.25;71.83
65766;SHT31;52915;53.718;19.946;2022-08-19T05:25:32;23.46;71.43
65766;SHT31;52915;53.718;19.946;2022-08-19T05:30:36;23.75;71.53
65766;SHT31;52915;53.718;19.946;2022-08-19T05:35:49;23.95;71.04
65766;SHT31;52915;53.718;19.946;2022-08-19T05:40:53;24.05;70.53
65766;SHT31;52915;53.718;19.946;2022-08-19T05:45:58;24.16;70.57
65766;SHT31;52915;53.718;19.946;2022-08-19T05:51:04;24.40;70.54
65766;SHT31;52915;53.718;19.946;2022-08-19T05:56:11;24.54;70.08
65766;SHT31;52915;53.718;19.946;2022-08-19T06:01:19;24.68;69.89
65766;SHT31;52915;53.718;19.946;2022-08-19T06:06:24;24.79;69.55
65766;SHT31;52915;53.718;19.946;2022-08-19T06:11:36;24.84;69.33
65766;SHT31;52915;53.718;19.946;2022-08-19T06:16:46;24.95;68.96
65766;SHT31;52915;53.718;19.946;2022-08-19T06:21:51;25.21;68.53
65766;SHT31;52915;53.718;19.946;2022-08-19T06:26:57;25.54;67.98
65766;SHT31;52915;53.718;19.946;2022-08-19T06:32:03;25.85;66.79
65766;SHT31;52915;53.718;19.946;2022-08-19T06:37:08;26.16;65.88
65766;SHT31;52915;53.718;19.946;2022-08-19T06:42:14;26.41;64.97
65766;SHT31;52915;53.718;19.946;2022-08-19T06:47:25;26.73;64.54
65766;SHT31;52915;53.718;19.946;2022-08-19T06:52:34;27.07;63.65
65766;SHT31;52915;53.718;19.946;2022-08-19T06:57:40;27.29;62.33
65766;SHT31;52915;53.718;19.946;2022-08-19T07:02:45;27.47;61.50
65766;SHT31;52915;53.718;19.946;2022-08-19T07:07:59;27.60;61.37
65766;SHT31;52915;53.718;19.946;2022-08-19T07:13:06;27.85;60.56
65766;SHT31;52915;53.718;19.946;2022-08-19T07:18:11;28.17;60.44
65766;SHT31;52915;53.718;19.946;2022-08-19T07:23:16;28.58;59.69
65766;SHT31;52915;53.718;19.946;2022-08-19T07:28:20;28.96;58.60
65766;SHT31;52915;53.718;19.946;2022-08-19T07:33:29;29.23;57.65
65766;SHT31;52915;53.718;19.946;2022-08-19T07:38:35;29.34;56.99
65766;SHT31;52915;53.718;19.946;2022-08-19T07:43:42;29.30;56.56
65766;SHT31;52915;53.718;19.946;2022-08-19T07:48:47;29.50;55.99
65766;SHT31;52915;53.718;19.946;2022-08-19T07:53:54;29.47;54.92
65766;SHT31;52915;53.718;19.946;2022-08-19T07:58:59;29.49;54.15
65766;SHT31;52915;53.718;19.946;2022-08-19T08:04:04;29.61;54.04
65766;SHT31;52915;53.718;19.946;2022-08-19T08:09:29;29.69;53.38
65766;SHT31;52915;53.718;19.946;2022-08-19T08:14:43;29.91;53.13
65766;SHT31;52915;53.718;19.946;2022-08-19T08:19:57;29.94;52.42
65766;SHT31;52915;53.718;19.946;2022-08-19T08:25:07;30.02;52.42
65766;SHT31;52915;53.718;19.946;2022-08-19T08:30:17;30.25;52.06
65766;SHT31;52915;53.718;19.946;2022-08-19T08:35:34;30.43;51.85
65766;SHT31;52915;53.718;19.946;2022-08-19T08:40:44;30.59;51.21
65766;SHT31;52915;53.718;19.946;2022-08-19T08:45:55;30.80;50.65
65766;SHT31;52915;53.718;19.946;2022-08-19T08:51:11;31.08;50.10
65766;SHT31;52915;53.718;19.946;2022-08-19T08:56:52;31.50;49.56
65766;SHT31;52915;53.718;19.946;2022-08-19T09:01:58;31.49;48.89
65766;SHT31;52915;53.718;19.946;2022-08-19T09:12:38;31.20;48.69
65766;SHT31;52915;53.718;19.946;2022-08-19T09:18:00;31.68;48.49
65766;SHT31;52915;53.718;19.946;2022-08-19T09:23:09;31.67;47.87
65766;SHT31;52915;53.718;19.946;2022-08-19T09:28:14;31.85;47.88
65766;SHT31;52915;53.718;19.946;2022-08-19T09:33:29;31.98;47.25
65766;SHT31;52915;53.718;19.946;2022-08-19T09:38:35;32.05;46.94
65766;SHT31;52915;53.718;19.946;2022-08-19T09:43:47;31.99;46.56
65766;SHT31;52915;53.718;19.946;2022-08-19T09:48:59;32.07;46.35
65766;SHT31;52915;53.718;19.946;2022-08-19T09:54:09;32.36;45.74
65766;SHT31;52915;53.718;19.946;2022-08-19T09:59:13;32.77;44.82
65766;SHT31;52915;53.718;19.946;2022-08-19T10:04:18;33.06;42.96
65766;SHT31;52915;53.718;19.946;2022-08-19T10:09:27;33.11;43.14
65766;SHT31;52915;53.718;19.946;2022-08-19T10:14:37;33.31;42.22
65766;SHT31;52915;53.718;19.946;2022-08-19T10:19:42;33.33;42.15
65766;SHT31;52915;53.718;19.946;2022-08-19T10:24:58;32.99;42.35
65766;SHT31;52915;53.718;19.946;2022-08-19T10:30:02;33.17;42.69
65766;SHT31;52915;53.718;19.946;2022-08-19T10:35:13;33.42;41.77
65766;SHT31;52915;53.718;19.946;2022-08-19T10:40:24;33.69;40.96
65766;SHT31;52915;53.718;19.946;2022-08-19T10:45:30;33.57;40.26
65766;SHT31;52915;53.718;19.946;2022-08-19T10:50:36;33.45;39.94
65766;SHT31;52915;53.718;19.946;2022-08-19T10:55:59;33.46;40.49
65766;SHT31;52915;53.718;19.946;2022-08-19T11:01:22;33.34;40.60
65766;SHT31;52915;53.718;19.946;2022-08-19T11:06:26;33.25;41.29
65766;SHT31;52915;53.718;19.946;2022-08-19T11:11:31;33.26;41.63
65766;SHT31;52915;53.718;19.946;2022-08-19T11:16:41;33.25;41.92
65766;SHT31;52915;53.718;19.946;2022-08-19T11:21:47;33.28;41.50
65766;SHT31;52915;53.718;19.946;2022-08-19T11:26:53;33.22;40.97
65766;SHT31;52915;53.718;19.946;2022-08-19T11:32:06;33.22;39.21
65766;SHT31;52915;53.718;19.946;2022-08-19T11:37:14;33.40;38.22
65766;SHT31;52915;53.718;19.946;2022-08-19T11:42:18;33.54;38.36
65766;SHT31;52915;53.718;19.946;2022-08-19T11:47:42;33.51;37.74
65766;SHT31;52915;53.718;19.946;2022-08-19T11:52:47;33.49;37.53
65766;SHT31;52915;53.718;19.946;2022-08-19T11:57:53;33.54;37.02
65766;SHT31;52915;53.718;19.946;2022-08-19T12:02:57;33.53;37.67
65766;SHT31;52915;53.718;19.946;2022-08-19T12:08:02;33.39;37.71
65766;SHT31;52915;53.718;19.946;2022-08-19T12:13:06;33.25;39.03
65766;SHT31;52915;53.718;19.946;2022-08-19T12:18:11;33.17;38.74
65766;SHT31;52915;53.718;19.946;2022-08-19T12:23:17;33.02;39.16
65766;SHT31;52915;53.718;19.946;2022-08-19T12:28:25;32.98;38.79
65766;SHT31;52915;53.718;19.946;2022-08-19T12:33:30;33.09;38.84
65766;SHT31;52915;53.718;19.946;2022-08-19T12:38:38;33.30;38.87
65766;SHT31;52915;53.718;19.946;2022-08-19T12:43:47;33.31;39.33
65766;SHT31;52915;53.718;19.946;2022-08-19T12:48:53;33.13;39.35
65766;SHT31;52915;53.718;19.946;2022-08-19T12:53:58;33.28;39.08
65766;SHT31;52915;53.718;19.946;2022-08-19T12:59:03;33.41;39.51
65766;SHT31;52915;53.718;19.946;2022-08-19T13:04:08;33.79;39.07
65766;SHT31;52915;53.718;19.946;2022-08-19T13:09:13;34.00;38.28
65766;SHT31;52915;53.718;19.946;2022-08-19T13:14:17;34.00;38.38
65766;SHT31;52915;53.718;19.946;2022-08-19T13:19:22;33.89;37.80
65766;SHT31;52915;53.718;19.946;2022-08-19T13:24:27;33.69;38.34
65766;SHT31;52915;53.718;19.946;2022-08-19T13:29:35;33.51;39.01
65766;SHT31;52915;53.718;19.946;2022-08-19T13:35:05;33.35;38.00
65766;SHT31;52915;53.718;19.946;2022-08-19T13:40:18;33.25;38.63
65766;SHT31;52915;53.718;19.946;2022-08-19T13:45:32;33.52;37.92
65766;SHT31;52915;53.718;19.946;2022-08-19T13:50:42;33.66;36.84
65766;SHT31;52915;53.718;19.946;2022-08-19T13:55:54;33.54;36.85
65766;SHT31;52915;53.718;19.946;2022-08-19T14:00:58;33.25;37.64
65766;SHT31;52915;53.718;19.946;2022-08-19T14:06:03;33.07;37.76
65766;SHT31;52915;53.718;19.946;2022-08-19T14:11:08;32.99;37.01
65766;SHT31;52915;53.718;19.946;2022-08-19T14:16:13;32.95;37.15
65766;SHT31;52915;53.718;19.946;2022-08-19T14:21:20;32.97;37.20
65766;SHT31;52915;53.718;19.946;2022-08-19T14:26:27;33.00;37.09
65766;SHT31;52915;53.718;19.946;2022-08-19T14:31:35;32.87;37.17
65766;SHT31;52915;53.718;19.946;2022-08-19T14:36:39;32.79;36.88
65766;SHT31;52915;53.718;19.946;2022-08-19T14:41:45;32.72;36.69
65766;SHT31;52915;53.718;19.946;2022-08-19T14:46:49;32.70;36.64
65766;SHT31;52915;53.718;19.946;2022-08-19T14:51:56;32.79;36.90
65766;SHT31;52915;53.718;19.946;2022-08-19T14:57:01;32.97;36.42
65766;SHT31;52915;53.718;19.946;2022-08-19T15:02:06;33.36;36.50
65766;SHT31;52915;53.718;19.946;2022-08-19T15:07:30;34.12;35.72
65766;SHT31;52915;53.718;19.946;2022-08-19T15:12:40;34.41;34.48
65766;SHT31;52915;53.718;19.946;2022-08-19T15:17:51;34.60;34.09
65766;SHT31;52915;53.718;19.946;2022-08-19T15:22:55;34.91;34.08
65766;SHT31;52915;53.718;19.946;2022-08-19T15:28:02;35.05;34.01
65766;SHT31;52915;53.718;19.946;2022-08-19T15:33:06;35.07;33.33
65766;SHT31;52915;53.718;19.946;2022-08-19T15:38:12;35.04;33.26
65766;SHT31;52915;53.718;19.946;2022-08-19T15:43:17;34.90;34.16
65766;SHT31;52915;53.718;19.946;2022-08-19T15:48:25;34.58;34.58
65766;SHT31;52915;53.718;19.946;2022-08-19T15:54:03;34.31;35.15
65766;SHT31;52915;53.718;19.946;2022-08-19T15:59:10;34.35;35.58
65766;SHT31;52915;53.718;19.946;2022-08-19T16:04:34;34.47;35.90
65766;SHT31;52915;53.718;19.946;2022-08-19T16:09:57;34.41;35.92
65766;SHT31;52915;53.718;19.946;2022-08-19T16:15:22;34.29;36.20
65766;SHT31;52915;53.718;19.946;2022-08-19T16:20:30;34.01;36.63
65766;SHT31;52915;53.718;19.946;2022-08-19T16:25:37;33.46;37.70
65766;SHT31;52915;53.718;19.946;2022-08-19T16:30:41;33.32;37.99
65766;SHT31;52915;53.718;19.946;2022-08-19T16:35:55;33.24;38.27
65766;SHT31;52915;53.718;19.946;2022-08-19T16:41:09;33.08;38.53
65766;SHT31;52915;53.718;19.946;2022-08-19T16:46:17;32.96;38.84
65766;SHT31;52915;53.718;19.946;2022-08-19T16:51:24;32.76;39.39
65766;SHT31;52915;53.718;19.946;2022-08-19T16:56:28;32.39;40.13
65766;SHT31;52915;53.718;19.946;2022-08-19T17:01:33;32.13;40.71
65766;SHT31;52915;53.718;19.946;2022-08-19T17:06:38;31.87;41.31
65766;SHT31;52915;53.718;19.946;2022-08-19T17:11:42;31.57;41.69
65766;SHT31;52915;53.718;19.946;2022-08-19T17:16:53;31.30;42.33
65766;SHT31;52915;53.718;19.946;2022-08-19T17:21:57;31.05;42.93
65766;SHT31;52915;53.718;19.946;2022-08-19T17:27:01;30.83;43.54
65766;SHT31;52915;53.718;19.946;2022-08-19T17:32:10;30.68;43.97
65766;SHT31;52915;53.718;19.946;2022-08-19T17:37:16;30.50;44.38
65766;SHT31;52915;53.718;19.946;2022-08-19T17:42:20;30.29;44.76
65766;SHT31;52915;53.718;19.946;2022-08-19T17:47:25;30.11;45.19
65766;SHT31;52915;53.718;19.946;2022-08-19T17:52:31;29.91;45.76
65766;SHT31;52915;53.718;19.946;2022-08-19T17:57:37;29.79;46.13
65766;SHT31;52915;53.718;19.946;2022-08-19T18:02:51;29.65;46.55
65766;SHT31;52915;53.718;19.946;2022-08-19T18:08:03;29.49;47.03
65766;SHT31;52915;53.718;19.946;2022-08-19T18:13:13;29.31;47.42
65766;SHT31;52915;53.718;19.946;2022-08-19T18:18:20;29.15;47.88
65766;SHT31;52915;53.718;19.946;2022-08-19T18:23:24;29.04;48.16
65766;SHT31;52915;53.718;19.946;2022-08-19T18:28:47;28.95;48.40
65766;SHT31;52915;53.718;19.946;2022-08-19T18:33:54;28.86;48.67
65766;SHT31;52915;53.718;19.946;2022-08-19T18:38:58;28.75;48.99
65766;SHT31;52915;53.718;19.946;2022-08-19T18:44:22;28.65;49.23
65766;SHT31;52915;53.718;19.946;2022-08-19T18:49:45;28.59;49.38
65766;SHT31;52915;53.718;19.946;2022-08-19T18:54:53;28.56;49.42
65766;SHT31;52915;53.718;19.946;2022-08-19T18:59:57;28.56;49.31
65766;SHT31;52915;53.718;19.946;2022-08-19T19:05:02;28.50;49.56
65766;SHT31;52915;53.718;19.946;2022-08-19T19:10:09;28.43;49.73
65766;SHT31;52915;53.718;19.946;2022-08-19T19:15:13;28.28;50.17
65766;SHT31;52915;53.718;19.946;2022-08-19T19:20:18;28.11;50.74
65766;SHT31;52915;53.718;19.946;2022-08-19T19:25:22;27.92;51.24
65766;SHT31;52915;53.718;19.946;2022-08-19T19:30:47;27.76;51.71
65766;SHT31;52915;53.718;19.946;2022-08-19T19:35:52;27.62;52.08
65766;SHT31;52915;53.718;19.946;2022-08-19T19:40:56;27.53;52.27
65766;SHT31;52915;53.718;19.946;2022-08-19T19:46:01;27.46;52.38
65766;SHT31;52915;53.718;19.946;2022-08-19T19:51:09;27.44;52.28
65766;SHT31;52915;53.718;19.946;2022-08-19T19:56:13;27.42;52.24
65766;SHT31;52915;53.718;19.946;2022-08-19T20:01:19;27.41;52.22
65766;SHT31;52915;53.718;19.946;2022-08-19T20:06:28;27.38;52.19
65766;SHT31;52915;53.718;19.946;2022-08-19T20:11:36;27.35;52.18
65766;SHT31;52915;53.718;19.946;2022-08-19T20:16:56;27.31;52.18
65766;SHT31;52915;53.718;19.946;2022-08-19T20:22:03;27.28;52.12
65766;SHT31;52915;53.718;19.946;2022-08-19T20:27:08;27.28;51.96
65766;SHT31;52915;53.718;19.946;2022-08-19T20:32:13;27.28;51.69
65766;SHT31;52915;53.718;19.946;2022-08-19T20:37:17;27.27;51.65
65766;SHT31;52915;53.718;19.946;2022-08-19T20:42:22;27.25;51.56
65766;SHT31;52915;53.718;19.946;2022-08-19T20:47:26;27.18;51.56
65766;SHT31;52915;53.718;19.946;2022-08-19T20:52:32;27.12;51.45
65766;SHT31;52915;53.718;19.946;2022-08-19T20:57:38;27.11;51.26
65766;SHT31;52915;53.718;19.946;2022-08-19T21:02:45;27.06;51.19
65766;SHT31;52915;53.718;19.946;2022-08-19T21:07:49;27.02;51.27
65766;SHT31;52915;53.718;19.946;2022-08-19T21:12:53;27.00;51.16
65766;SHT31;52915;53.718;19.946;2022-08-19T21:17:58;26.99;51.12
65766;SHT31;52915;53.718;19.946;2022-08-19T21:23:03;27.00;51.04
65766;SHT31;52915;53.718;19.946;2022-08-19T21:28:16;26.99;51.04
65766;SHT31;52915;53.718;19.946;2022-08-19T21:33:38;26.98;50.96
65766;SHT31;52915;53.718;19.946;2022-08-19T21:38:43;26.97;50.95
65766;SHT31;52915;53.718;19.946;2022-08-19T21:43:47;26.96;50.90
65766;SHT31;52915;53.718;19.946;2022-08-19T21:48:51;26.92;51.06
65766;SHT31;52915;53.718;19.946;2022-08-19T21:53:56;26.86;51.17
65766;SHT31;52915;53.718;19.946;2022-08-19T21:59:01;26.84;51.21
65766;SHT31;52915;53.718;19.946;2022-08-19T22:04:05;26.81;51.38
65766;SHT31;52915;53.718;19.946;2022-08-19T22:09:10;26.78;51.51
65766;SHT31;52915;53.718;19.946;2022-08-19T22:14:14;26.77;51.64
65766;SHT31;52915;53.718;19.946;2022-08-19T22:19:18;26.75;51.87
65766;SHT31;52915;53.718;19.946;2022-08-19T22:24:30;26.72;52.11
65766;SHT31;52915;53.718;19.946;2022-08-19T22:29:34;26.69;52.31
65766;SHT31;52915;53.718;19.946;2022-08-19T22:34:39;26.66;52.53
65766;SHT31;52915;53.718;19.946;2022-08-19T22:39:44;26.60;52.76
65766;SHT31;52915;53.718;19.946;2022-08-19T22:44:48;26.56;53.25
65766;SHT31;52915;53.718;19.946;2022-08-19T22:49:52;26.47;53.78
65766;SHT31;52915;53.718;19.946;2022-08-19T22:55:01;26.40;53.97
65766;SHT31;52915;53.718;19.946;2022-08-19T23:00:09;26.35;54.19
65766;SHT31;52915;53.718;19.946;2022-08-19T23:05:16;26.30;54.56
65766;SHT31;52915;53.718;19.946;2022-08-19T23:10:24;26.25;54.85
65766;SHT31;52915;53.718;19.946;2022-08-19T23:15:31;26.21;55.25
65766;SHT31;52915;53.718;19.946;2022-08-19T23:20:37;26.09;55.99
65766;SHT31;52915;53.718;19.946;2022-08-19T23:25:44;25.97;56.90
65766;SHT31;52915;53.718;19.946;2022-08-19T23:30:51;25.85;57.83
65766;SHT31;52915;53.718;19.946;2022-08-19T23:36:01;25.72;59.43
65766;SHT31;52915;53.718;19.946;2022-08-19T23:41:15;25.54;60.99
65766;SHT31;52915;53.718;19.946;2022-08-19T23:46:21;25.36;61.97
65766;SHT31;52915;53.718;19.946;2022-08-19T23:51:30;25.24;62.76
65766;SHT31;52915;53.718;19.946;2022-08-19T23:56:34;25.00;65.21
